Terminal Aerodrome Forecast
Issued by NWS Brownsville, TX

Home | Current Version | Previous Version | Text Only | Print | Product List | Glossary On
Versions: 1 2 3 4 5 6 7 8 9 10 11 12 13 14
296
FTUS44 KBRO 202320
TAFBRO
TAF
KBRO 202320Z 2100/2124 14013G19KT P6SM FEW040
     FM210200 15006KT P6SM FEW030
     FM211700 16014G19KT P6SM SCT040=

USA.gov is the U.S. government's official web portal to all federal, state and local government web resources and services.